sensor_id;sensor_type;location;lat;lon;timestamp;temperature;humidity
19039;DHT22;9652;49.014;12.052;2023-04-03T00:00:23;8.20;65.90
19039;DHT22;9652;49.014;12.052;2023-04-03T00:02:50;8.20;66.70
19039;DHT22;9652;49.014;12.052;2023-04-03T00:05:17;8.20;65.90
19039;DHT22;9652;49.014;12.052;2023-04-03T00:07:44;8.20;65.80
19039;DHT22;9652;49.014;12.052;2023-04-03T00:10:11;8.20;65.90
19039;DHT22;9652;49.014;12.052;2023-04-03T00:12:39;8.20;65.70
19039;DHT22;9652;49.014;12.052;2023-04-03T00:15:07;8.20;65.80
19039;DHT22;9652;49.014;12.052;2023-04-03T00:17:36;8.20;65.80
19039;DHT22;9652;49.014;12.052;2023-04-03T00:20:04;8.20;65.70
19039;DHT22;9652;49.014;12.052;2023-04-03T00:22:32;8.20;65.70
19039;DHT22;9652;49.014;12.052;2023-04-03T00:24:59;8.20;65.90
19039;DHT22;9652;49.014;12.052;2023-04-03T00:27:26;8.10;65.80
19039;DHT22;9652;49.014;12.052;2023-04-03T00:29:53;8.10;65.70
19039;DHT22;9652;49.014;12.052;2023-04-03T00:32:21;8.20;65.90
19039;DHT22;9652;49.014;12.052;2023-04-03T00:34:49;8.10;65.70
19039;DHT22;9652;49.014;12.052;2023-04-03T00:37:17;8.10;65.70
19039;DHT22;9652;49.014;12.052;2023-04-03T00:39:44;8.20;65.90
19039;DHT22;9652;49.014;12.052;2023-04-03T00:42:11;8.00;65.60
19039;DHT22;9652;49.014;12.052;2023-04-03T00:48:00;8.00;65.00
19039;DHT22;9652;49.014;12.052;2023-04-03T00:50:36;8.00;66.50
19039;DHT22;9652;49.014;12.052;2023-04-03T00:53:06;8.00;65.60
19039;DHT22;9652;49.014;12.052;2023-04-03T00:55:38;8.00;65.60
19039;DHT22;9652;49.014;12.052;2023-04-03T00:58:06;8.00;65.60
19039;DHT22;9652;49.014;12.052;2023-04-03T01:00:37;8.00;65.60
19039;DHT22;9652;49.014;12.052;2023-04-03T01:03:08;7.90;65.50
19039;DHT22;9652;49.014;12.052;2023-04-03T01:05:39;7.90;65.50
19039;DHT22;9652;49.014;12.052;2023-04-03T01:08:07;7.90;65.50
19039;DHT22;9652;49.014;12.052;2023-04-03T01:10:35;7.90;65.50
19039;DHT22;9652;49.014;12.052;2023-04-03T01:13:18;7.90;65.60
19039;DHT22;9652;49.014;12.052;2023-04-03T01:15:47;7.80;65.10
19039;DHT22;9652;49.014;12.052;2023-04-03T01:18:15;7.80;65.50
19039;DHT22;9652;49.014;12.052;2023-04-03T01:21:10;7.80;65.40
19039;DHT22;9652;49.014;12.052;2023-04-03T01:24:11;7.80;65.10
19039;DHT22;9652;49.014;12.052;2023-04-03T01:26:49;7.80;65.30
19039;DHT22;9652;49.014;12.052;2023-04-03T01:29:16;7.80;65.60
19039;DHT22;9652;49.014;12.052;2023-04-03T01:31:50;7.80;65.60
19039;DHT22;9652;49.014;12.052;2023-04-03T01:34:20;7.80;65.50
19039;DHT22;9652;49.014;12.052;2023-04-03T01:36:48;7.70;65.50
19039;DHT22;9652;49.014;12.052;2023-04-03T01:39:16;7.70;65.60
19039;DHT22;9652;49.014;12.052;2023-04-03T01:41:44;7.80;65.70
19039;DHT22;9652;49.014;12.052;2023-04-03T01:44:32;7.70;65.60
19039;DHT22;9652;49.014;12.052;2023-04-03T01:47:01;7.70;65.80
19039;DHT22;9652;49.014;12.052;2023-04-03T01:49:29;7.70;65.70
19039;DHT22;9652;49.014;12.052;2023-04-03T01:51:56;7.70;66.00
19039;DHT22;9652;49.014;12.052;2023-04-03T01:54:23;7.70;65.90
19039;DHT22;9652;49.014;12.052;2023-04-03T01:56:51;7.70;66.00
19039;DHT22;9652;49.014;12.052;2023-04-03T01:59:19;7.70;66.00
19039;DHT22;9652;49.014;12.052;2023-04-03T02:01:46;7.70;66.10
19039;DHT22;9652;49.014;12.052;2023-04-03T02:04:15;7.70;66.10
19039;DHT22;9652;49.014;12.052;2023-04-03T02:06:42;7.70;66.10
19039;DHT22;9652;49.014;12.052;2023-04-03T02:09:09;7.70;66.10
19039;DHT22;9652;49.014;12.052;2023-04-03T02:11:36;7.70;66.30
19039;DHT22;9652;49.014;12.052;2023-04-03T02:14:04;7.70;66.40
19039;DHT22;9652;49.014;12.052;2023-04-03T02:16:31;7.70;66.50
19039;DHT22;9652;49.014;12.052;2023-04-03T02:18:58;7.70;66.40
19039;DHT22;9652;49.014;12.052;2023-04-03T02:21:27;7.80;66.50
19039;DHT22;9652;49.014;12.052;2023-04-03T02:23:54;7.80;66.40
19039;DHT22;9652;49.014;12.052;2023-04-03T02:26:21;7.80;66.40
19039;DHT22;9652;49.014;12.052;2023-04-03T02:28:48;7.80;66.40
19039;DHT22;9652;49.014;12.052;2023-04-03T02:31:15;7.80;66.40
19039;DHT22;9652;49.014;12.052;2023-04-03T02:33:45;7.80;66.20
19039;DHT22;9652;49.014;12.052;2023-04-03T02:36:14;7.80;66.30
19039;DHT22;9652;49.014;12.052;2023-04-03T02:38:47;7.80;66.20
19039;DHT22;9652;49.014;12.052;2023-04-03T02:41:14;7.80;66.30
19039;DHT22;9652;49.014;12.052;2023-04-03T02:43:42;7.80;66.50
19039;DHT22;9652;49.014;12.052;2023-04-03T02:46:09;7.80;66.40
19039;DHT22;9652;49.014;12.052;2023-04-03T02:48:36;7.80;66.30
19039;DHT22;9652;49.014;12.052;2023-04-03T02:51:04;7.80;66.30
19039;DHT22;9652;49.014;12.052;2023-04-03T02:53:31;7.80;66.30
19039;DHT22;9652;49.014;12.052;2023-04-03T02:56:05;7.70;66.20
19039;DHT22;9652;49.014;12.052;2023-04-03T02:58:32;7.70;66.20
19039;DHT22;9652;49.014;12.052;2023-04-03T03:01:03;7.70;66.30
19039;DHT22;9652;49.014;12.052;2023-04-03T03:03:30;7.70;66.30
19039;DHT22;9652;49.014;12.052;2023-04-03T03:06:01;7.70;67.20
19039;DHT22;9652;49.014;12.052;2023-04-03T03:08:29;7.70;66.50
19039;DHT22;9652;49.014;12.052;2023-04-03T03:10:56;7.70;66.60
19039;DHT22;9652;49.014;12.052;2023-04-03T03:13:25;7.70;66.60
19039;DHT22;9652;49.014;12.052;2023-04-03T03:15:53;7.80;66.60
19039;DHT22;9652;49.014;12.052;2023-04-03T03:18:21;7.70;66.60
19039;DHT22;9652;49.014;12.052;2023-04-03T03:20:51;7.70;66.60
19039;DHT22;9652;49.014;12.052;2023-04-03T03:23:20;7.70;66.50
19039;DHT22;9652;49.014;12.052;2023-04-03T03:25:49;7.70;66.50
19039;DHT22;9652;49.014;12.052;2023-04-03T03:28:16;7.70;66.50
19039;DHT22;9652;49.014;12.052;2023-04-03T03:30:44;7.80;66.60
19039;DHT22;9652;49.014;12.052;2023-04-03T03:33:11;7.70;66.50
19039;DHT22;9652;49.014;12.052;2023-04-03T03:35:38;7.70;66.50
19039;DHT22;9652;49.014;12.052;2023-04-03T03:38:07;7.60;66.50
19039;DHT22;9652;49.014;12.052;2023-04-03T03:40:34;7.60;66.50
19039;DHT22;9652;49.014;12.052;2023-04-03T03:43:02;7.70;66.60
19039;DHT22;9652;49.014;12.052;2023-04-03T03:45:29;7.70;66.70
19039;DHT22;9652;49.014;12.052;2023-04-03T03:47:58;7.70;66.60
19039;DHT22;9652;49.014;12.052;2023-04-03T03:50:25;7.70;66.80
19039;DHT22;9652;49.014;12.052;2023-04-03T03:52:53;7.70;66.60
19039;DHT22;9652;49.014;12.052;2023-04-03T03:55:20;7.70;66.40
19039;DHT22;9652;49.014;12.052;2023-04-03T03:57:51;7.70;66.30
19039;DHT22;9652;49.014;12.052;2023-04-03T04:00:19;7.80;66.30
19039;DHT22;9652;49.014;12.052;2023-04-03T04:02:52;7.60;66.30
19039;DHT22;9652;49.014;12.052;2023-04-03T04:05:23;7.60;66.50
19039;DHT22;9652;49.014;12.052;2023-04-03T04:07:52;7.60;66.60
19039;DHT22;9652;49.014;12.052;2023-04-03T04:10:19;7.60;66.70
19039;DHT22;9652;49.014;12.052;2023-04-03T04:12:46;7.60;66.60
19039;DHT22;9652;49.014;12.052;2023-04-03T04:15:15;7.60;66.60
19039;DHT22;9652;49.014;12.052;2023-04-03T04:17:42;7.60;66.50
19039;DHT22;9652;49.014;12.052;2023-04-03T04:20:11;7.50;66.40
19039;DHT22;9652;49.014;12.052;2023-04-03T04:22:40;7.50;66.40
19039;DHT22;9652;49.014;12.052;2023-04-03T04:25:08;7.50;66.40
19039;DHT22;9652;49.014;12.052;2023-04-03T04:27:38;7.50;66.50
19039;DHT22;9652;49.014;12.052;2023-04-03T04:30:06;7.50;66.60
19039;DHT22;9652;49.014;12.052;2023-04-03T04:32:34;7.50;66.50
19039;DHT22;9652;49.014;12.052;2023-04-03T04:35:02;7.50;66.40
19039;DHT22;9652;49.014;12.052;2023-04-03T04:37:31;7.40;66.30
19039;DHT22;9652;49.014;12.052;2023-04-03T04:40:00;7.40;66.30
19039;DHT22;9652;49.014;12.052;2023-04-03T04:42:28;7.40;66.40
19039;DHT22;9652;49.014;12.052;2023-04-03T04:44:55;7.30;66.50
19039;DHT22;9652;49.014;12.052;2023-04-03T04:47:23;7.30;66.60
19039;DHT22;9652;49.014;12.052;2023-04-03T04:49:50;7.40;66.50
19039;DHT22;9652;49.014;12.052;2023-04-03T04:52:17;7.40;66.50
19039;DHT22;9652;49.014;12.052;2023-04-03T04:54:45;7.30;66.50
19039;DHT22;9652;49.014;12.052;2023-04-03T04:57:13;7.30;66.50
19039;DHT22;9652;49.014;12.052;2023-04-03T04:59:41;7.30;66.60
19039;DHT22;9652;49.014;12.052;2023-04-03T05:02:08;7.30;66.60
19039;DHT22;9652;49.014;12.052;2023-04-03T05:04:37;7.30;66.60
19039;DHT22;9652;49.014;12.052;2023-04-03T05:07:11;7.40;66.60
19039;DHT22;9652;49.014;12.052;2023-04-03T05:09:38;7.40;66.50
19039;DHT22;9652;49.014;12.052;2023-04-03T05:12:08;7.30;66.60
19039;DHT22;9652;49.014;12.052;2023-04-03T05:14:42;7.40;66.70
19039;DHT22;9652;49.014;12.052;2023-04-03T05:17:10;7.40;66.50
19039;DHT22;9652;49.014;12.052;2023-04-03T05:19:41;7.30;66.50
19039;DHT22;9652;49.014;12.052;2023-04-03T05:22:09;7.40;66.60
19039;DHT22;9652;49.014;12.052;2023-04-03T05:24:36;7.30;66.50
19039;DHT22;9652;49.014;12.052;2023-04-03T05:27:04;7.40;66.60
19039;DHT22;9652;49.014;12.052;2023-04-03T05:29:35;7.40;66.70
19039;DHT22;9652;49.014;12.052;2023-04-03T05:32:05;7.30;66.60
19039;DHT22;9652;49.014;12.052;2023-04-03T05:34:32;7.40;66.80
19039;DHT22;9652;49.014;12.052;2023-04-03T05:37:00;7.40;66.80
19039;DHT22;9652;49.014;12.052;2023-04-03T05:39:28;7.40;67.00
19039;DHT22;9652;49.014;12.052;2023-04-03T05:41:57;7.40;66.90
19039;DHT22;9652;49.014;12.052;2023-04-03T05:44:24;7.40;66.90
19039;DHT22;9652;49.014;12.052;2023-04-03T05:46:53;7.40;66.80
19039;DHT22;9652;49.014;12.052;2023-04-03T05:49:21;7.40;66.60
19039;DHT22;9652;49.014;12.052;2023-04-03T05:51:49;7.50;66.80
19039;DHT22;9652;49.014;12.052;2023-04-03T05:54:24;7.50;66.80
19039;DHT22;9652;49.014;12.052;2023-04-03T05:56:59;7.50;66.80
19039;DHT22;9652;49.014;12.052;2023-04-03T05:59:27;7.50;66.80
19039;DHT22;9652;49.014;12.052;2023-04-03T06:01:56;7.60;66.80
19039;DHT22;9652;49.014;12.052;2023-04-03T06:04:25;7.60;66.90
19039;DHT22;9652;49.014;12.052;2023-04-03T06:06:54;7.60;66.70
19039;DHT22;9652;49.014;12.052;2023-04-03T06:09:27;7.70;66.80
19039;DHT22;9652;49.014;12.052;2023-04-03T06:11:55;7.70;66.80
19039;DHT22;9652;49.014;12.052;2023-04-03T06:14:24;7.70;66.50
19039;DHT22;9652;49.014;12.052;2023-04-03T06:16:52;7.70;66.60
19039;DHT22;9652;49.014;12.052;2023-04-03T06:19:20;7.70;66.60
19039;DHT22;9652;49.014;12.052;2023-04-03T06:21:52;7.70;66.60
19039;DHT22;9652;49.014;12.052;2023-04-03T06:24:19;7.80;66.60
19039;DHT22;9652;49.014;12.052;2023-04-03T06:26:47;7.80;66.70
19039;DHT22;9652;49.014;12.052;2023-04-03T06:29:15;7.90;66.80
19039;DHT22;9652;49.014;12.052;2023-04-03T06:31:42;7.90;66.80
19039;DHT22;9652;49.014;12.052;2023-04-03T06:34:09;7.90;66.80
19039;DHT22;9652;49.014;12.052;2023-04-03T06:36:37;8.00;66.70
19039;DHT22;9652;49.014;12.052;2023-04-03T06:39:06;8.00;66.60
19039;DHT22;9652;49.014;12.052;2023-04-03T06:41:33;8.10;66.80
19039;DHT22;9652;49.014;12.052;2023-04-03T06:44:00;8.20;67.00
19039;DHT22;9652;49.014;12.052;2023-04-03T06:46:28;8.20;66.70
19039;DHT22;9652;49.014;12.052;2023-04-03T06:48:56;8.30;66.40
19039;DHT22;9652;49.014;12.052;2023-04-03T06:51:25;8.30;66.20
19039;DHT22;9652;49.014;12.052;2023-04-03T06:53:56;8.40;66.10
19039;DHT22;9652;49.014;12.052;2023-04-03T06:56:27;8.40;66.10
19039;DHT22;9652;49.014;12.052;2023-04-03T06:58:55;8.50;66.20
19039;DHT22;9652;49.014;12.052;2023-04-03T07:01:24;8.50;66.10
19039;DHT22;9652;49.014;12.052;2023-04-03T07:03:53;8.50;65.90
19039;DHT22;9652;49.014;12.052;2023-04-03T07:06:21;8.70;65.90
19039;DHT22;9652;49.014;12.052;2023-04-03T07:08:52;8.70;65.50
19039;DHT22;9652;49.014;12.052;2023-04-03T07:11:20;8.80;65.30
19039;DHT22;9652;49.014;12.052;2023-04-03T07:13:49;8.80;65.00
19039;DHT22;9652;49.014;12.052;2023-04-03T07:16:16;8.80;64.90
19039;DHT22;9652;49.014;12.052;2023-04-03T07:18:44;8.90;64.90
19039;DHT22;9652;49.014;12.052;2023-04-03T07:21:11;8.90;64.50
19039;DHT22;9652;49.014;12.052;2023-04-03T07:23:39;8.90;64.60
19039;DHT22;9652;49.014;12.052;2023-04-03T07:26:06;9.00;64.80
19039;DHT22;9652;49.014;12.052;2023-04-03T07:28:33;9.00;64.60
19039;DHT22;9652;49.014;12.052;2023-04-03T07:31:05;9.10;64.10
19039;DHT22;9652;49.014;12.052;2023-04-03T07:33:35;9.10;64.10
19039;DHT22;9652;49.014;12.052;2023-04-03T07:36:03;9.10;64.30
19039;DHT22;9652;49.014;12.052;2023-04-03T07:38:33;9.20;64.20
19039;DHT22;9652;49.014;12.052;2023-04-03T07:41:00;9.20;64.10
19039;DHT22;9652;49.014;12.052;2023-04-03T07:43:28;9.20;64.30
19039;DHT22;9652;49.014;12.052;2023-04-03T07:45:55;9.30;64.60
19039;DHT22;9652;49.014;12.052;2023-04-03T07:48:25;9.40;64.60
19039;DHT22;9652;49.014;12.052;2023-04-03T07:50:53;9.40;64.40
19039;DHT22;9652;49.014;12.052;2023-04-03T07:53:20;9.50;64.30
19039;DHT22;9652;49.014;12.052;2023-04-03T07:55:48;9.60;63.60
19039;DHT22;9652;49.014;12.052;2023-04-03T07:58:18;9.70;63.50
19039;DHT22;9652;49.014;12.052;2023-04-03T08:00:45;9.70;63.30
19039;DHT22;9652;49.014;12.052;2023-04-03T08:03:14;9.80;63.30
19039;DHT22;9652;49.014;12.052;2023-04-03T08:05:46;9.80;62.90
19039;DHT22;9652;49.014;12.052;2023-04-03T08:08:16;9.90;62.50
19039;DHT22;9652;49.014;12.052;2023-04-03T08:10:48;10.00;62.80
19039;DHT22;9652;49.014;12.052;2023-04-03T08:13:17;10.10;62.80
19039;DHT22;9652;49.014;12.052;2023-04-03T08:15:44;10.10;63.20
19039;DHT22;9652;49.014;12.052;2023-04-03T08:18:12;10.30;62.00
19039;DHT22;9652;49.014;12.052;2023-04-03T08:20:39;10.40;61.60
19039;DHT22;9652;49.014;12.052;2023-04-03T08:23:08;10.40;61.50
19039;DHT22;9652;49.014;12.052;2023-04-03T08:25:38;10.50;61.30
19039;DHT22;9652;49.014;12.052;2023-04-03T08:28:06;10.50;60.90
19039;DHT22;9652;49.014;12.052;2023-04-03T08:30:34;10.50;60.80
19039;DHT22;9652;49.014;12.052;2023-04-03T08:33:01;10.60;60.20
19039;DHT22;9652;49.014;12.052;2023-04-03T08:35:29;10.60;60.30
19039;DHT22;9652;49.014;12.052;2023-04-03T08:37:56;10.60;60.20
19039;DHT22;9652;49.014;12.052;2023-04-03T08:40:24;10.70;59.50
19039;DHT22;9652;49.014;12.052;2023-04-03T08:43:01;10.60;59.30
19039;DHT22;9652;49.014;12.052;2023-04-03T08:45:45;10.60;58.90
19039;DHT22;9652;49.014;12.052;2023-04-03T08:48:19;10.60;58.30
19039;DHT22;9652;49.014;12.052;2023-04-03T08:50:51;10.60;57.90
19039;DHT22;9652;49.014;12.052;2023-04-03T08:53:22;10.50;58.00
19039;DHT22;9652;49.014;12.052;2023-04-03T08:55:55;10.40;58.00
19039;DHT22;9652;49.014;12.052;2023-04-03T08:58:25;10.40;57.10
19039;DHT22;9652;49.014;12.052;2023-04-03T09:00:58;10.40;56.60
19039;DHT22;9652;49.014;12.052;2023-04-03T09:03:30;10.30;57.00
19039;DHT22;9652;49.014;12.052;2023-04-03T09:06:02;10.30;57.50
19039;DHT22;9652;49.014;12.052;2023-04-03T09:08:37;10.30;57.30
19039;DHT22;9652;49.014;12.052;2023-04-03T09:11:19;10.30;57.40
19039;DHT22;9652;49.014;12.052;2023-04-03T09:13:56;10.40;57.50
19039;DHT22;9652;49.014;12.052;2023-04-03T09:16:36;10.40;56.90
19039;DHT22;9652;49.014;12.052;2023-04-03T09:19:17;10.50;56.80
19039;DHT22;9652;49.014;12.052;2023-04-03T09:21:48;10.50;56.80
19039;DHT22;9652;49.014;12.052;2023-04-03T09:24:17;10.60;56.90
19039;DHT22;9652;49.014;12.052;2023-04-03T09:26:51;10.60;56.50
19039;DHT22;9652;49.014;12.052;2023-04-03T09:29:25;10.50;55.90
19039;DHT22;9652;49.014;12.052;2023-04-03T09:31:56;10.40;56.00
19039;DHT22;9652;49.014;12.052;2023-04-03T09:34:27;10.30;55.60
19039;DHT22;9652;49.014;12.052;2023-04-03T09:36:58;10.20;55.40
19039;DHT22;9652;49.014;12.052;2023-04-03T09:39:32;10.10;56.10
19039;DHT22;9652;49.014;12.052;2023-04-03T09:42:21;10.10;56.30
19039;DHT22;9652;49.014;12.052;2023-04-03T09:44:54;10.10;56.30
19039;DHT22;9652;49.014;12.052;2023-04-03T09:47:25;10.20;56.10
19039;DHT22;9652;49.014;12.052;2023-04-03T09:50:15;10.20;56.60
19039;DHT22;9652;49.014;12.052;2023-04-03T09:52:47;10.40;56.00
19039;DHT22;9652;49.014;12.052;2023-04-03T09:55:18;10.50;56.60
19039;DHT22;9652;49.014;12.052;2023-04-03T09:57:54;10.60;56.20
19039;DHT22;9652;49.014;12.052;2023-04-03T10:00:25;10.80;55.70
19039;DHT22;9652;49.014;12.052;2023-04-03T10:02:55;10.90;55.50
19039;DHT22;9652;49.014;12.052;2023-04-03T10:05:29;11.00;55.50
19039;DHT22;9652;49.014;12.052;2023-04-03T10:08:09;11.20;55.80
19039;DHT22;9652;49.014;12.052;2023-04-03T10:10:47;11.40;55.20
19039;DHT22;9652;49.014;12.052;2023-04-03T10:13:32;11.60;55.60
19039;DHT22;9652;49.014;12.052;2023-04-03T10:16:03;11.80;55.50
19039;DHT22;9652;49.014;12.052;2023-04-03T10:18:40;11.90;55.10
19039;DHT22;9652;49.014;12.052;2023-04-03T10:21:15;12.10;54.80
19039;DHT22;9652;49.014;12.052;2023-04-03T10:23:57;12.30;54.90
19039;DHT22;9652;49.014;12.052;2023-04-03T10:26:39;12.50;54.50
19039;DHT22;9652;49.014;12.052;2023-04-03T10:29:21;12.70;53.90
19039;DHT22;9652;49.014;12.052;2023-04-03T10:32:17;12.80;54.20
19039;DHT22;9652;49.014;12.052;2023-04-03T10:35:03;13.00;53.40
19039;DHT22;9652;49.014;12.052;2023-04-03T10:37:53;13.10;52.70
19039;DHT22;9652;49.014;12.052;2023-04-03T10:40:33;13.20;51.60
19039;DHT22;9652;49.014;12.052;2023-04-03T10:43:08;13.10;51.90
19039;DHT22;9652;49.014;12.052;2023-04-03T10:45:51;13.10;52.00
19039;DHT22;9652;49.014;12.052;2023-04-03T10:48:34;13.10;51.80
19039;DHT22;9652;49.014;12.052;2023-04-03T10:51:22;13.10;51.10
19039;DHT22;9652;49.014;12.052;2023-04-03T10:53:56;13.10;50.60
19039;DHT22;9652;49.014;12.052;2023-04-03T10:56:37;13.00;50.20
19039;DHT22;9652;49.014;12.052;2023-04-03T10:59:15;12.90;50.00
19039;DHT22;9652;49.014;12.052;2023-04-03T11:01:52;12.80;49.50
19039;DHT22;9652;49.014;12.052;2023-04-03T11:04:25;12.70;49.80
19039;DHT22;9652;49.014;12.052;2023-04-03T11:07:00;12.50;49.30
19039;DHT22;9652;49.014;12.052;2023-04-03T11:09:31;12.40;48.70
19039;DHT22;9652;49.014;12.052;2023-04-03T11:12:06;12.30;48.70
19039;DHT22;9652;49.014;12.052;2023-04-03T11:14:38;12.20;49.10
19039;DHT22;9652;49.014;12.052;2023-04-03T11:17:19;12.10;49.70
19039;DHT22;9652;49.014;12.052;2023-04-03T11:20:02;12.00;48.80
19039;DHT22;9652;49.014;12.052;2023-04-03T11:22:37;12.00;49.40
19039;DHT22;9652;49.014;12.052;2023-04-03T11:25:15;12.00;49.80
19039;DHT22;9652;49.014;12.052;2023-04-03T11:27:51;12.00;49.20
19039;DHT22;9652;49.014;12.052;2023-04-03T11:30:24;12.00;49.60
19039;DHT22;9652;49.014;12.052;2023-04-03T11:33:39;12.10;49.20
19039;DHT22;9652;49.014;12.052;2023-04-03T11:36:18;12.10;47.50
19039;DHT22;9652;49.014;12.052;2023-04-03T11:38:49;12.10;47.70
19039;DHT22;9652;49.014;12.052;2023-04-03T11:41:25;12.00;48.00
19039;DHT22;9652;49.014;12.052;2023-04-03T11:44:00;11.90;48.00
19039;DHT22;9652;49.014;12.052;2023-04-03T11:46:51;11.80;49.00
19039;DHT22;9652;49.014;12.052;2023-04-03T11:49:54;11.80;48.80
19039;DHT22;9652;49.014;12.052;2023-04-03T11:52:55;11.90;48.60
19039;DHT22;9652;49.014;12.052;2023-04-03T11:55:43;12.10;49.50
19039;DHT22;9652;49.014;12.052;2023-04-03T11:58:19;12.10;48.80
19039;DHT22;9652;49.014;12.052;2023-04-03T12:07:01;12.30;48.90
19039;DHT22;9652;49.014;12.052;2023-04-03T12:10:01;12.40;46.90
19039;DHT22;9652;49.014;12.052;2023-04-03T12:12:41;12.40;47.40
19039;DHT22;9652;49.014;12.052;2023-04-03T12:18:59;12.50;47.00
19039;DHT22;9652;49.014;12.052;2023-04-03T12:22:07;12.50;47.40
19039;DHT22;9652;49.014;12.052;2023-04-03T12:24:48;12.60;47.50
19039;DHT22;9652;49.014;12.052;2023-04-03T12:27:38;12.60;48.70
19039;DHT22;9652;49.014;12.052;2023-04-03T12:30:15;12.70;47.70
19039;DHT22;9652;49.014;12.052;2023-04-03T12:33:15;12.80;48.80
19039;DHT22;9652;49.014;12.052;2023-04-03T12:35:58;12.90;47.60
19039;DHT22;9652;49.014;12.052;2023-04-03T12:38:46;12.90;46.60
19039;DHT22;9652;49.014;12.052;2023-04-03T12:41:37;12.90;46.10
19039;DHT22;9652;49.014;12.052;2023-04-03T12:44:27;12.80;46.90
19039;DHT22;9652;49.014;12.052;2023-04-03T12:47:23;12.80;46.70
19039;DHT22;9652;49.014;12.052;2023-04-03T12:49:54;12.80;46.20
19039;DHT22;9652;49.014;12.052;2023-04-03T12:52:34;12.70;47.10
19039;DHT22;9652;49.014;12.052;2023-04-03T12:55:16;12.70;46.50
19039;DHT22;9652;49.014;12.052;2023-04-03T12:57:46;12.70;46.70
19039;DHT22;9652;49.014;12.052;2023-04-03T13:00:22;12.80;47.70
19039;DHT22;9652;49.014;12.052;2023-04-03T13:02:55;12.80;46.80
19039;DHT22;9652;49.014;12.052;2023-04-03T13:05:23;12.80;47.20
19039;DHT22;9652;49.014;12.052;2023-04-03T13:07:56;12.90;46.70
19039;DHT22;9652;49.014;12.052;2023-04-03T13:10:29;12.70;45.90
19039;DHT22;9652;49.014;12.052;2023-04-03T13:12:58;12.60;45.30
19039;DHT22;9652;49.014;12.052;2023-04-03T13:15:41;12.40;46.10
19039;DHT22;9652;49.014;12.052;2023-04-03T13:18:25;12.40;45.70
19039;DHT22;9652;49.014;12.052;2023-04-03T13:21:01;12.40;45.80
19039;DHT22;9652;49.014;12.052;2023-04-03T13:23:31;12.40;46.50
19039;DHT22;9652;49.014;12.052;2023-04-03T13:26:03;12.40;46.00
19039;DHT22;9652;49.014;12.052;2023-04-03T13:28:33;12.40;46.10
19039;DHT22;9652;49.014;12.052;2023-04-03T13:31:08;12.40;46.40
19039;DHT22;9652;49.014;12.052;2023-04-03T13:33:54;12.40;46.00
19039;DHT22;9652;49.014;12.052;2023-04-03T13:36:27;12.50;46.10
19039;DHT22;9652;49.014;12.052;2023-04-03T13:38:59;12.60;46.50
19039;DHT22;9652;49.014;12.052;2023-04-03T13:41:31;12.60;46.00
19039;DHT22;9652;49.014;12.052;2023-04-03T13:44:18;12.60;45.10
19039;DHT22;9652;49.014;12.052;2023-04-03T13:46:56;12.60;44.40
19039;DHT22;9652;49.014;12.052;2023-04-03T13:49:32;12.50;45.60
19039;DHT22;9652;49.014;12.052;2023-04-03T13:52:17;12.50;45.90
19039;DHT22;9652;49.014;12.052;2023-04-03T13:54:53;12.60;47.00
19039;DHT22;9652;49.014;12.052;2023-04-03T13:57:24;12.70;47.00
19039;DHT22;9652;49.014;12.052;2023-04-03T13:59:53;12.80;46.80
19039;DHT22;9652;49.014;12.052;2023-04-03T14:02:22;12.90;47.90
19039;DHT22;9652;49.014;12.052;2023-04-03T14:04:58;13.00;47.70
19039;DHT22;9652;49.014;12.052;2023-04-03T14:07:28;13.20;48.10
19039;DHT22;9652;49.014;12.052;2023-04-03T14:09:56;13.40;48.10
19039;DHT22;9652;49.014;12.052;2023-04-03T14:12:30;13.70;47.20
19039;DHT22;9652;49.014;12.052;2023-04-03T14:15:00;13.70;45.80
19039;DHT22;9652;49.014;12.052;2023-04-03T14:17:29;13.70;45.00
19039;DHT22;9652;49.014;12.052;2023-04-03T14:19:57;13.60;44.80
19039;DHT22;9652;49.014;12.052;2023-04-03T14:22:28;13.50;45.30
19039;DHT22;9652;49.014;12.052;2023-04-03T14:24:57;13.50;46.00
19039;DHT22;9652;49.014;12.052;2023-04-03T14:27:28;13.60;46.50
19039;DHT22;9652;49.014;12.052;2023-04-03T14:29:59;13.60;46.20
19039;DHT22;9652;49.014;12.052;2023-04-03T14:32:29;13.80;47.00
19039;DHT22;9652;49.014;12.052;2023-04-03T14:34:56;14.10;47.10
19039;DHT22;9652;49.014;12.052;2023-04-03T14:37:25;14.10;46.70
19039;DHT22;9652;49.014;12.052;2023-04-03T14:39:56;14.30;45.70
19039;DHT22;9652;49.014;12.052;2023-04-03T14:42:27;14.40;45.10
19039;DHT22;9652;49.014;12.052;2023-04-03T14:44:56;14.30;44.10
19039;DHT22;9652;49.014;12.052;2023-04-03T14:47:26;14.20;44.00
19039;DHT22;9652;49.014;12.052;2023-04-03T14:49:54;14.00;44.10
19039;DHT22;9652;49.014;12.052;2023-04-03T14:52:25;14.00;45.10
19039;DHT22;9652;49.014;12.052;2023-04-03T14:54:55;14.10;45.70
19039;DHT22;9652;49.014;12.052;2023-04-03T14:57:24;14.20;46.10
19039;DHT22;9652;49.014;12.052;2023-04-03T14:59:54;14.40;45.30
19039;DHT22;9652;49.014;12.052;2023-04-03T15:02:27;14.40;44.70
19039;DHT22;9652;49.014;12.052;2023-04-03T15:04:56;14.40;43.50
19039;DHT22;9652;49.014;12.052;2023-04-03T15:07:27;14.20;42.10
19039;DHT22;9652;49.014;12.052;2023-04-03T15:09:56;14.00;42.00
19039;DHT22;9652;49.014;12.052;2023-04-03T15:12:23;13.80;43.00
19039;DHT22;9652;49.014;12.052;2023-04-03T15:14:50;13.60;44.30
19039;DHT22;9652;49.014;12.052;2023-04-03T15:17:21;13.60;45.20
19039;DHT22;9652;49.014;12.052;2023-04-03T15:19:49;13.80;45.00
19039;DHT22;9652;49.014;12.052;2023-04-03T15:22:18;14.00;45.80
19039;DHT22;9652;49.014;12.052;2023-04-03T15:24:46;14.20;45.50
19039;DHT22;9652;49.014;12.052;2023-04-03T15:27:14;14.40;45.20
19039;DHT22;9652;49.014;12.052;2023-04-03T15:29:42;14.60;44.60
19039;DHT22;9652;49.014;12.052;2023-04-03T15:32:11;14.60;43.40
19039;DHT22;9652;49.014;12.052;2023-04-03T15:34:40;14.60;42.30
19039;DHT22;9652;49.014;12.052;2023-04-03T15:37:08;14.40;41.50
19039;DHT22;9652;49.014;12.052;2023-04-03T15:39:35;14.10;41.40
19039;DHT22;9652;49.014;12.052;2023-04-03T15:42:02;13.90;41.50
19039;DHT22;9652;49.014;12.052;2023-04-03T15:44:32;13.60;41.60
19039;DHT22;9652;49.014;12.052;2023-04-03T15:47:00;13.30;42.00
19039;DHT22;9652;49.014;12.052;2023-04-03T15:49:28;13.10;42.20
19039;DHT22;9652;49.014;12.052;2023-04-03T15:51:58;13.00;42.40
19039;DHT22;9652;49.014;12.052;2023-04-03T15:54:26;12.80;42.10
19039;DHT22;9652;49.014;12.052;2023-04-03T15:56:55;12.80;42.00
19039;DHT22;9652;49.014;12.052;2023-04-03T15:59:22;12.60;41.60
19039;DHT22;9652;49.014;12.052;2023-04-03T16:01:50;12.50;41.90
19039;DHT22;9652;49.014;12.052;2023-04-03T16:04:19;12.30;41.50
19039;DHT22;9652;49.014;12.052;2023-04-03T16:06:47;12.20;42.10
19039;DHT22;9652;49.014;12.052;2023-04-03T16:09:16;12.00;42.60
19039;DHT22;9652;49.014;12.052;2023-04-03T16:11:43;12.00;42.70
19039;DHT22;9652;49.014;12.052;2023-04-03T16:14:10;11.90;43.00
19039;DHT22;9652;49.014;12.052;2023-04-03T16:16:38;11.90;43.20
19039;DHT22;9652;49.014;12.052;2023-04-03T16:19:06;11.80;43.40